Time;durP1;ratioP1;P1;durP2;ratioP2;P2;SDS_P1;SDS_P2;PMS_P1;PMS_P2;Temp;Humidity;BMP_temperature;BMP_pressure;BME280_temperature;BME280_humidity;BME280_pressure;Samples;Min_cycle;Max_cycle;Signal;HPM_P1;HPM_P2
2022/07/23 00:00:50;;;;;;;8.38;5.63;;;20.50;99.90;;;;;;5081975;28;20016;-74
2022/07/23 00:03:16;;;;;;;9.43;6.03;;;20.50;99.90;;;;;;5080569;28;20021;-74
2022/07/23 00:05:42;;;;;;;9.88;6.20;;;20.40;99.90;;;;;;5084699;28;20020;-74
2022/07/23 00:08:08;;;;;;;8.32;6.40;;;20.40;99.90;;;;;;5081899;28;20385;-74
2022/07/23 00:10:34;;;;;;;9.13;6.60;;;20.50;99.90;;;;;;5087056;28;20457;-74
2022/07/23 00:12:59;;;;;;;11.63;6.85;;;20.40;99.90;;;;;;5084626;28;20039;-74
2022/07/23 00:15:25;;;;;;;10.93;6.28;;;20.40;99.90;;;;;;5079407;28;20016;-74
2022/07/23 00:17:51;;;;;;;12.77;7.20;;;20.30;99.90;;;;;;5089984;28;20082;-73
2022/07/23 00:20:17;;;;;;;12.45;7.38;;;20.30;99.90;;;;;;5084636;28;20380;-73
2022/07/23 00:22:51;;;;;;;11.85;8.18;;;20.20;99.90;;;;;;5081088;28;20058;-74
2022/07/23 00:25:16;;;;;;;9.65;7.28;;;20.10;99.90;;;;;;5083510;28;20013;-74
2022/07/23 00:27:42;;;;;;;11.15;7.68;;;20.10;99.90;;;;;;5090215;28;20100;-74
2022/07/23 00:30:09;;;;;;;12.70;7.43;;;20.10;99.90;;;;;;5080584;28;20027;-74
2022/07/23 00:32:56;;;;;;;14.02;8.25;;;20.10;99.90;;;;;;5080531;28;20020;-74
2022/07/23 00:35:22;;;;;;;12.48;8.55;;;20.10;99.90;;;;;;5081850;28;20508;-73
2022/07/23 00:37:48;;;;;;;10.70;8.20;;;20.10;99.90;;;;;;5090692;28;20062;-74
2022/07/23 00:40:15;;;;;;;13.55;8.88;;;20.10;99.90;;;;;;5085885;28;20845;-74
2022/07/23 00:42:40;;;;;;;11.70;8.60;;;20.10;99.90;;;;;;5091497;28;20028;-73
2022/07/23 00:45:07;;;;;;;13.88;8.75;;;20.10;99.90;;;;;;5083674;28;20512;-74
2022/07/23 00:47:33;;;;;;;12.07;8.27;;;20.10;99.90;;;;;;5089601;28;20036;-73
2022/07/23 00:49:59;;;;;;;11.65;8.88;;;20.00;99.90;;;;;;5089601;28;20016;-74
2022/07/23 00:52:25;;;;;;;13.43;9.73;;;20.00;99.90;;;;;;5083906;28;20385;-73
2022/07/23 00:54:51;;;;;;;11.65;8.70;;;20.00;99.90;;;;;;5094386;28;20020;-73
2022/07/23 00:57:17;;;;;;;12.52;9.75;;;19.90;99.90;;;;;;5088581;28;20040;-74
2022/07/23 00:59:43;;;;;;;13.18;9.45;;;19.90;99.90;;;;;;5088311;28;20435;-74
2022/07/23 01:02:10;;;;;;;15.00;10.13;;;19.80;99.90;;;;;;5087218;28;20032;-73
2022/07/23 01:04:36;;;;;;;13.73;9.68;;;19.80;99.90;;;;;;5093899;28;20480;-74
2022/07/23 01:07:01;;;;;;;12.10;9.00;;;19.80;99.90;;;;;;5087996;28;20465;-73
2022/07/23 01:09:27;;;;;;;12.93;9.88;;;19.80;99.90;;;;;;5087710;28;20473;-74
2022/07/23 01:11:54;;;;;;;16.13;10.23;;;19.80;99.90;;;;;;5087948;28;20457;-73
2022/07/23 01:14:21;;;;;;;13.38;9.07;;;19.70;99.90;;;;;;5086224;28;20013;-74
2022/07/23 01:16:48;;;;;;;11.70;9.30;;;19.70;99.90;;;;;;5085789;28;20067;-74
2022/07/23 01:19:15;;;;;;;9.77;8.55;;;19.70;99.90;;;;;;5085791;28;20117;-74
2022/07/23 01:21:47;;;;;;;10.15;8.65;;;19.70;99.90;;;;;;5092758;28;20068;-74
2022/07/23 01:24:14;;;;;;;13.23;8.60;;;19.60;99.90;;;;;;5080941;28;20020;-73
2022/07/23 01:26:46;;;;;;;11.18;9.10;;;19.50;99.90;;;;;;5092788;28;20166;-73
2022/07/23 01:29:11;;;;;;;13.50;9.48;;;19.50;99.90;;;;;;5086721;28;20504;-73
2022/07/23 01:31:37;;;;;;;14.60;9.65;;;19.40;99.90;;;;;;5087920;28;20063;-73
2022/07/23 01:34:04;;;;;;;14.30;9.55;;;19.30;99.90;;;;;;5084763;28;20021;-73
2022/07/23 01:36:30;;;;;;;13.00;9.15;;;19.40;99.90;;;;;;5083060;28;20024;-74
2022/07/23 01:38:55;;;;;;;11.38;8.50;;;19.40;99.90;;;;;;5087785;28;20027;-74
2022/07/23 01:41:21;;;;;;;10.82;8.35;;;19.40;99.90;;;;;;5085026;28;20029;-74
2022/07/23 01:43:47;;;;;;;12.55;8.60;;;19.30;99.90;;;;;;5088514;28;20016;-73
2022/07/23 01:46:13;;;;;;;12.57;9.63;;;19.30;99.90;;;;;;5083303;28;20030;-73
2022/07/23 01:48:39;;;;;;;16.67;8.98;;;19.20;99.90;;;;;;5081877;28;20047;-74
2022/07/23 01:51:05;;;;;;;12.45;9.07;;;19.10;99.90;;;;;;5099101;28;20020;-74
2022/07/23 01:53:31;;;;;;;12.27;8.23;;;19.10;99.90;;;;;;5085331;28;20385;-74
2022/07/23 01:56:00;;;;;;;9.15;8.15;;;19.00;99.90;;;;;;5089867;28;20024;-73
2022/07/23 01:58:26;;;;;;;11.95;8.70;;;19.00;99.90;;;;;;5084488;28;20153;-74
2022/07/23 02:00:53;;;;;;;9.98;8.32;;;19.00;99.90;;;;;;5087024;28;20042;-74
2022/07/23 02:03:19;;;;;;;10.10;8.48;;;19.10;99.90;;;;;;5086262;28;20052;-72
2022/07/23 02:05:44;;;;;;;11.43;8.90;;;19.10;99.90;;;;;;5091902;28;20059;-73
2022/07/23 02:08:10;;;;;;;9.02;7.57;;;19.10;99.90;;;;;;5086852;28;20016;-74
2022/07/23 02:10:36;;;;;;;9.30;8.25;;;19.00;99.90;;;;;;5092070;28;20388;-73
2022/07/23 02:13:02;;;;;;;10.70;8.60;;;19.00;99.90;;;;;;5084946;28;20381;-74
2022/07/23 02:15:28;;;;;;;11.18;8.13;;;19.00;99.90;;;;;;5081597;28;20027;-73
2022/07/23 02:17:54;;;;;;;11.23;7.75;;;18.90;99.90;;;;;;5086894;28;20477;-73
2022/07/23 02:20:20;;;;;;;7.97;6.88;;;18.90;99.90;;;;;;5084996;28;20485;-73
2022/07/23 02:22:46;;;;;;;10.32;8.10;;;18.80;99.90;;;;;;5079807;28;20044;-73
2022/07/23 02:25:12;;;;;;;12.30;8.05;;;18.80;99.90;;;;;;5086424;28;20076;-73
2022/07/23 02:27:37;;;;;;;9.50;8.07;;;18.80;99.90;;;;;;5087275;28;20067;-74
2022/07/23 02:30:04;;;;;;;9.85;7.18;;;18.80;99.90;;;;;;5084718;28;20020;-74
2022/07/23 02:32:30;;;;;;;8.20;7.35;;;18.80;99.90;;;;;;5086336;28;20497;-74
2022/07/23 02:34:56;;;;;;;11.82;7.93;;;18.80;99.90;;;;;;5082555;28;20059;-74
2022/07/23 02:37:21;;;;;;;12.32;7.82;;;18.80;99.90;;;;;;5083579;28;20024;-73
2022/07/23 02:39:48;;;;;;;8.00;7.20;;;18.70;99.90;;;;;;5089671;28;20380;-73
2022/07/23 02:42:15;;;;;;;9.07;7.63;;;18.60;99.90;;;;;;5086186;28;20031;-73
2022/07/23 02:44:41;;;;;;;13.13;7.63;;;18.70;99.90;;;;;;5086773;28;20098;-74
2022/07/23 02:47:06;;;;;;;10.13;8.48;;;18.70;99.90;;;;;;5080374;28;20040;-73
2022/07/23 02:49:32;;;;;;;9.90;7.47;;;18.70;99.90;;;;;;5086035;28;20449;-73
2022/07/23 02:51:58;;;;;;;8.88;7.95;;;18.60;99.90;;;;;;5086607;28;20020;-74
2022/07/23 02:54:23;;;;;;;11.85;7.60;;;18.60;99.90;;;;;;5083756;28;20025;-73
2022/07/23 02:56:51;;;;;;;8.40;7.10;;;18.50;99.90;;;;;;5084505;28;20031;-74
2022/07/23 02:59:17;;;;;;;9.80;7.43;;;18.50;99.90;;;;;;5087486;28;20031;-74
2022/07/23 03:01:43;;;;;;;10.65;7.68;;;18.50;99.90;;;;;;5084592;28;20028;-74
2022/07/23 03:04:09;;;;;;;10.98;8.05;;;18.50;99.90;;;;;;5085731;28;20047;-73
2022/07/23 03:06:35;;;;;;;11.00;7.78;;;18.50;99.90;;;;;;5084464;28;20582;-74
2022/07/23 03:09:00;;;;;;;8.18;7.22;;;18.50;99.90;;;;;;5082875;28;20492;-74
2022/07/23 03:11:26;;;;;;;9.88;7.50;;;18.50;99.90;;;;;;5078829;28;20027;-74
2022/07/23 03:13:51;;;;;;;10.15;7.78;;;18.40;99.90;;;;;;5086691;28;20487;-73
2022/07/23 03:16:17;;;;;;;9.30;7.53;;;18.30;99.90;;;;;;5084444;28;20531;-74
2022/07/23 03:18:43;;;;;;;8.90;7.97;;;18.40;99.90;;;;;;5085556;28;20477;-73
2022/07/23 03:21:09;;;;;;;8.43;7.07;;;18.40;99.90;;;;;;5077083;28;20481;-73
2022/07/23 03:23:34;;;;;;;8.55;6.65;;;18.40;99.90;;;;;;5088180;28;20487;-74
2022/07/23 03:26:00;;;;;;;9.38;6.85;;;18.30;99.90;;;;;;5085862;28;20495;-73
2022/07/23 03:28:26;;;;;;;9.70;7.20;;;18.30;99.90;;;;;;5089379;28;20032;-74
2022/07/23 03:30:51;;;;;;;9.40;7.95;;;18.30;99.90;;;;;;5079898;28;20024;-73
2022/07/23 03:33:19;;;;;;;12.25;7.43;;;18.30;99.90;;;;;;5089147;28;20028;-73
2022/07/23 03:35:45;;;;;;;10.52;7.55;;;18.30;99.90;;;;;;5080339;28;20020;-73
2022/07/23 03:38:12;;;;;;;8.05;7.25;;;18.20;99.90;;;;;;5082036;28;20025;-73
2022/07/23 03:40:37;;;;;;;10.70;7.35;;;18.10;99.90;;;;;;5085601;28;20030;-74
2022/07/23 03:43:03;;;;;;;10.98;7.63;;;18.00;99.90;;;;;;5084707;28;20023;-74
2022/07/23 03:45:29;;;;;;;7.30;6.60;;;18.00;99.90;;;;;;5082977;28;20382;-74
2022/07/23 03:47:55;;;;;;;9.85;7.38;;;17.90;99.90;;;;;;5080738;28;20385;-73
2022/07/23 03:50:21;;;;;;;7.95;6.55;;;17.90;99.90;;;;;;5081851;28;20440;-73
2022/07/23 03:52:46;;;;;;;9.02;7.18;;;17.80;99.90;;;;;;5087228;28;20021;-73
2022/07/23 03:55:12;;;;;;;10.65;7.68;;;17.90;99.90;;;;;;5082563;28;20112;-73
2022/07/23 03:57:38;;;;;;;9.75;7.50;;;17.90;99.90;;;;;;5089374;28;20070;-74
2022/07/23 04:00:06;;;;;;;13.27;7.35;;;18.00;99.90;;;;;;5082705;28;20099;-73
2022/07/23 04:02:32;;;;;;;9.35;7.00;;;17.80;99.90;;;;;;5090289;28;20349;-73
2022/07/23 04:04:59;;;;;;;10.35;8.52;;;17.80;99.90;;;;;;5080232;28;20024;-74
2022/07/23 04:07:24;;;;;;;9.25;7.40;;;17.80;99.90;;;;;;5077548;28;20024;-74
2022/07/23 04:09:50;;;;;;;10.88;8.13;;;17.80;99.90;;;;;;5082439;28;20055;-74
2022/07/23 04:12:16;;;;;;;11.13;9.10;;;17.80;99.90;;;;;;5082475;28;20025;-73
2022/07/23 04:14:41;;;;;;;8.43;7.57;;;17.70;99.90;;;;;;5086368;28;20024;-74
2022/07/23 04:17:07;;;;;;;10.18;8.55;;;17.70;99.90;;;;;;5088138;28;20021;-73
2022/07/23 04:19:33;;;;;;;8.18;7.45;;;17.70;99.90;;;;;;5081623;28;20513;-73
2022/07/23 04:21:58;;;;;;;10.90;7.70;;;17.60;99.90;;;;;;5088561;28;20032;-73
2022/07/23 04:24:24;;;;;;;9.05;8.25;;;17.60;99.90;;;;;;5086910;28;20021;-74
2022/07/23 04:26:50;;;;;;;9.57;8.02;;;17.60;99.90;;;;;;5093735;28;20432;-76
2022/07/23 04:29:15;;;;;;;9.52;8.13;;;17.60;99.90;;;;;;5088243;28;20473;-75
2022/07/23 04:31:41;;;;;;;10.20;7.78;;;17.60;99.90;;;;;;5081525;28;20185;-72
2022/07/23 04:34:07;;;;;;;11.18;7.93;;;17.60;99.90;;;;;;5086383;28;20521;-74
2022/07/23 04:36:32;;;;;;;9.60;7.50;;;17.60;99.90;;;;;;5088695;28;20427;-71
2022/07/23 04:38:58;;;;;;;10.27;7.85;;;17.60;99.90;;;;;;5077648;28;20504;-71
2022/07/23 04:41:24;;;;;;;11.90;8.13;;;17.50;99.90;;;;;;5087950;28;20477;-75
2022/07/23 04:43:49;;;;;;;12.98;9.38;;;17.50;99.90;;;;;;5084781;28;20032;-73
2022/07/23 04:46:15;;;;;;;10.52;8.38;;;17.60;99.90;;;;;;5081951;28;20388;-71
2022/07/23 04:48:42;;;;;;;10.75;8.32;;;17.50;99.90;;;;;;5082759;28;20024;-72
2022/07/23 04:51:08;;;;;;;8.75;7.82;;;17.50;99.90;;;;;;5084099;28;20055;-73
2022/07/23 04:53:33;;;;;;;10.77;8.07;;;17.50;99.90;;;;;;5087820;28;20059;-74
2022/07/23 04:56:00;;;;;;;11.60;8.25;;;17.50;99.90;;;;;;5089773;28;20071;-75
2022/07/23 04:58:25;;;;;;;12.00;9.20;;;17.50;99.90;;;;;;5086328;28;20034;-73
2022/07/23 05:00:51;;;;;;;9.45;8.52;;;17.50;99.90;;;;;;5090856;28;20023;-75
2022/07/23 05:03:17;;;;;;;10.38;9.25;;;17.50;99.90;;;;;;5086615;28;20439;-75
2022/07/23 05:05:43;;;;;;;8.75;7.57;;;17.50;99.90;;;;;;5088702;28;20031;-73
2022/07/23 05:08:08;;;;;;;10.18;8.00;;;17.60;99.90;;;;;;5085807;28;20082;-75
2022/07/23 05:10:34;;;;;;;10.80;9.02;;;17.60;99.90;;;;;;5089181;28;20531;-72
2022/07/23 05:13:00;;;;;;;11.68;9.05;;;17.60;99.90;;;;;;5088681;28;20111;-72
2022/07/23 05:15:26;;;;;;;10.30;9.13;;;17.60;99.90;;;;;;5090441;28;20020;-74
2022/07/23 05:17:51;;;;;;;11.82;10.25;;;17.50;99.90;;;;;;5083812;28;20033;-74
2022/07/23 05:20:17;;;;;;;13.30;9.45;;;17.60;99.90;;;;;;5081646;28;20028;-74
2022/07/23 05:22:43;;;;;;;11.75;9.02;;;17.60;99.90;;;;;;5090978;28;20477;-74
2022/07/23 05:25:09;;;;;;;11.80;8.55;;;17.60;99.90;;;;;;5086598;28;20028;-74
2022/07/23 05:27:34;;;;;;;12.55;10.02;;;17.60;99.90;;;;;;5087249;28;20054;-75
2022/07/23 05:30:00;;;;;;;10.43;9.32;;;17.70;99.90;;;;;;5082713;28;20338;-74
2022/07/23 05:32:26;;;;;;;12.95;8.88;;;17.70;99.90;;;;;;5083095;28;20481;-74
2022/07/23 05:34:51;;;;;;;12.52;9.75;;;17.70;99.90;;;;;;5089694;28;20024;-75
2022/07/23 05:37:17;;;;;;;11.82;10.02;;;17.70;99.90;;;;;;5085341;28;20029;-75
2022/07/23 05:39:43;;;;;;;12.77;10.63;;;17.70;99.90;;;;;;5087354;28;20024;-74
2022/07/23 05:42:09;;;;;;;13.50;10.88;;;17.80;99.90;;;;;;5083841;28;20028;-71
2022/07/23 05:44:34;;;;;;;12.48;10.18;;;17.80;99.90;;;;;;5085757;28;20051;-73
2022/07/23 05:47:00;;;;;;;13.75;10.63;;;17.80;99.90;;;;;;5083035;28;20444;-73
2022/07/23 05:49:26;;;;;;;14.02;11.43;;;17.80;99.90;;;;;;5084853;28;20020;-74
2022/07/23 05:51:52;;;;;;;13.43;11.98;;;17.90;99.90;;;;;;5086968;28;20362;-74
2022/07/23 05:54:17;;;;;;;17.63;12.70;;;17.90;99.90;;;;;;5085567;28;20531;-73
2022/07/23 05:56:43;;;;;;;15.63;11.70;;;17.90;99.90;;;;;;5088323;28;20086;-74
2022/07/23 05:59:09;;;;;;;15.15;12.05;;;17.90;99.90;;;;;;5079035;28;20025;-75
2022/07/23 06:01:34;;;;;;;15.10;11.88;;;18.00;99.90;;;;;;5091208;28;20089;-74
2022/07/23 06:04:00;;;;;;;16.42;13.30;;;18.00;99.90;;;;;;5085748;28;20024;-74
2022/07/23 06:06:26;;;;;;;15.32;12.82;;;18.00;99.90;;;;;;5091638;28;20085;-75
2022/07/23 06:08:51;;;;;;;15.80;13.00;;;18.00;99.90;;;;;;5086250;28;20032;-74
2022/07/23 06:11:17;;;;;;;15.10;13.52;;;17.90;99.90;;;;;;5084802;28;20419;-75
2022/07/23 06:13:43;;;;;;;18.13;14.00;;;18.00;99.90;;;;;;5082365;28;20549;-74
2022/07/23 06:16:08;;;;;;;17.33;13.57;;;18.10;99.90;;;;;;5084648;28;20024;-74
2022/07/23 06:18:34;;;;;;;21.95;14.55;;;18.10;99.90;;;;;;5087352;28;20149;-73
2022/07/23 06:21:00;;;;;;;14.25;12.77;;;18.20;99.90;;;;;;5087962;28;20031;-73
2022/07/23 06:23:26;;;;;;;14.65;12.93;;;18.10;99.90;;;;;;5084655;28;20020;-73
2022/07/23 06:25:52;;;;;;;18.15;13.60;;;18.20;99.90;;;;;;5087253;28;20078;-74
2022/07/23 06:28:17;;;;;;;16.30;13.23;;;18.30;99.90;;;;;;5085548;28;20032;-74
2022/07/23 06:30:43;;;;;;;14.70;12.63;;;18.30;99.90;;;;;;5089181;28;20439;-74
2022/07/23 06:33:09;;;;;;;18.70;13.85;;;18.30;99.90;;;;;;5080282;28;20078;-73
2022/07/23 06:35:35;;;;;;;12.85;11.60;;;18.40;99.90;;;;;;5082494;28;20055;-71
2022/07/23 06:38:01;;;;;;;15.43;12.57;;;18.40;99.90;;;;;;5082082;28;20114;-71
2022/07/23 06:40:26;;;;;;;17.00;12.93;;;18.40;99.90;;;;;;5087859;28;20086;-72
2022/07/23 06:42:52;;;;;;;12.82;11.40;;;18.50;99.90;;;;;;5085281;28;20017;-71
2022/07/23 06:45:18;;;;;;;14.73;11.55;;;18.50;99.90;;;;;;5080732;28;20029;-74
2022/07/23 06:47:43;;;;;;;13.10;10.35;;;18.50;99.90;;;;;;5077624;28;20036;-71
2022/07/23 06:50:10;;;;;;;12.57;9.65;;;18.60;99.90;;;;;;5084425;28;20070;-71
2022/07/23 06:52:36;;;;;;;13.10;9.48;;;18.60;99.90;;;;;;5085233;28;20436;-71
2022/07/23 06:55:01;;;;;;;12.05;7.75;;;18.70;99.90;;;;;;5086845;28;20119;-73
2022/07/23 06:57:27;;;;;;;14.48;8.45;;;18.80;99.90;;;;;;5082635;28;20028;-76
2022/07/23 06:59:53;;;;;;;8.88;7.82;;;18.90;99.90;;;;;;5082043;28;20020;-73
2022/07/23 07:02:19;;;;;;;10.85;7.60;;;18.90;99.90;;;;;;5082924;28;20060;-72
2022/07/23 07:04:45;;;;;;;11.05;7.10;;;18.90;99.90;;;;;;5083513;28;20027;-75
2022/07/23 07:07:11;;;;;;;7.03;5.95;;;19.00;99.90;;;;;;5086115;28;20085;-75
2022/07/23 07:09:37;;;;;;;8.77;6.88;;;19.00;99.90;;;;;;5076783;28;20434;-72
2022/07/23 07:12:04;;;;;;;9.73;6.40;;;19.10;99.90;;;;;;5077505;28;20024;-72
2022/07/23 07:14:29;;;;;;;7.90;6.32;;;19.20;99.90;;;;;;5080244;28;20033;-74
2022/07/23 07:16:55;;;;;;;7.75;5.72;;;19.30;99.90;;;;;;5084910;28;20150;-75
2022/07/23 07:19:21;;;;;;;7.03;6.32;;;19.50;99.90;;;;;;5080031;28;20031;-72
2022/07/23 07:21:47;;;;;;;7.20;5.40;;;19.50;99.90;;;;;;5082860;28;20442;-72
2022/07/23 07:24:12;;;;;;;6.03;5.35;;;19.60;99.90;;;;;;5080650;28;20036;-74
2022/07/23 07:26:39;;;;;;;8.20;6.65;;;19.80;99.90;;;;;;5087839;28;20044;-77
2022/07/23 07:29:05;;;;;;;11.52;5.88;;;19.90;99.90;;;;;;5080713;28;20020;-77
2022/07/23 07:31:31;;;;;;;10.48;6.40;;;19.90;99.90;;;;;;5085289;28;20035;-77
2022/07/23 07:33:57;;;;;;;6.50;5.38;;;20.00;99.90;;;;;;5079832;28;20028;-74
2022/07/23 07:36:23;;;;;;;10.30;5.22;;;20.00;99.90;;;;;;5081480;28;20028;-77
2022/07/23 07:38:49;;;;;;;8.90;4.97;;;20.10;99.90;;;;;;5090267;28;20028;-75
2022/07/23 07:41:15;;;;;;;10.85;5.70;;;20.10;99.90;;;;;;5089730;28;20025;-74
2022/07/23 07:43:41;;;;;;;7.45;4.38;;;20.30;99.90;;;;;;5082351;28;20024;-74
2022/07/23 07:46:09;;;;;;;6.88;4.70;;;20.30;99.90;;;;;;5081668;28;20059;-74
2022/07/23 07:48:36;;;;;;;6.97;4.88;;;20.40;99.90;;;;;;5080586;28;20032;-76
2022/07/23 07:51:04;;;;;;;9.20;4.90;;;20.50;99.90;;;;;;5080103;28;20531;-76
2022/07/23 07:53:29;;;;;;;5.85;4.80;;;20.50;99.90;;;;;;5084735;28;20016;-74
2022/07/23 07:55:55;;;;;;;5.30;4.07;;;20.70;99.90;;;;;;5078372;28;20401;-76
2022/07/23 07:58:21;;;;;;;6.65;4.47;;;20.70;99.90;;;;;;5080684;28;20040;-75
2022/07/23 08:00:46;;;;;;;9.07;4.28;;;20.90;99.90;;;;;;5082486;28;20029;-76
2022/07/23 08:03:12;;;;;;;8.07;5.28;;;20.90;99.90;;;;;;5086045;28;20020;-76
2022/07/23 08:05:38;;;;;;;8.02;4.10;;;20.90;99.90;;;;;;5083683;28;20047;-74
2022/07/23 08:08:04;;;;;;;6.63;5.00;;;20.90;99.90;;;;;;5085073;28;20063;-75
2022/07/23 08:10:31;;;;;;;8.65;4.68;;;21.00;99.90;;;;;;5089110;28;20056;-73
2022/07/23 08:12:58;;;;;;;9.68;6.22;;;21.10;99.90;;;;;;5085198;28;20032;-74
2022/07/23 08:15:26;;;;;;;6.30;4.85;;;21.20;99.90;;;;;;5089987;28;20100;-75
2022/07/23 08:17:52;;;;;;;10.40;4.70;;;21.40;99.90;;;;;;5084692;28;20013;-76
2022/07/23 08:20:20;;;;;;;8.70;5.43;;;21.50;99.90;;;;;;5082724;28;23057;-74
2022/07/23 08:22:47;;;;;;;8.25;5.22;;;21.60;99.90;;;;;;5086479;28;20563;-74
2022/07/23 08:25:14;;;;;;;8.07;5.22;;;21.90;99.90;;;;;;5080839;28;20028;-75
2022/07/23 08:27:39;;;;;;;5.80;5.18;;;22.00;99.90;;;;;;5088409;28;20055;-75
2022/07/23 08:30:07;;;;;;;5.85;4.38;;;22.00;99.90;;;;;;5083113;28;20025;-76
2022/07/23 08:32:33;;;;;;;6.90;4.25;;;22.10;99.90;;;;;;5084716;28;20019;-77
2022/07/23 08:34:58;;;;;;;7.38;4.70;;;22.10;99.90;;;;;;5084497;28;20020;-75
2022/07/23 08:37:24;;;;;;;6.25;5.00;;;22.30;99.90;;;;;;5079539;28;20029;-73
2022/07/23 08:39:50;;;;;;;5.57;5.07;;;22.50;99.90;;;;;;5084037;28;20020;-75
2022/07/23 08:42:16;;;;;;;6.40;4.32;;;22.60;99.90;;;;;;5082977;28;20020;-75
2022/07/23 08:44:46;;;;;;;6.15;4.70;;;22.60;99.90;;;;;;5086237;28;20024;-75
2022/07/23 08:47:14;;;;;;;7.15;5.40;;;22.80;99.90;;;;;;5081314;28;20032;-76
2022/07/23 08:49:40;;;;;;;5.38;4.88;;;23.00;99.90;;;;;;5081301;28;20484;-75
2022/07/23 08:52:06;;;;;;;4.65;4.18;;;23.20;99.90;;;;;;5085976;28;20028;-75
2022/07/23 08:54:34;;;;;;;9.38;5.45;;;23.10;99.90;;;;;;5084206;28;20470;-75
2022/07/23 08:56:59;;;;;;;7.03;4.10;;;23.20;99.90;;;;;;5084513;28;20059;-74
2022/07/23 08:59:26;;;;;;;10.00;5.43;;;23.20;99.90;;;;;;5081175;28;20048;-75
2022/07/23 09:01:52;;;;;;;6.18;4.50;;;23.40;99.90;;;;;;5080397;28;20025;-75
2022/07/23 09:04:18;;;;;;;7.53;4.80;;;23.50;99.90;;;;;;5082907;28;20477;-75
2022/07/23 09:06:44;;;;;;;6.85;5.20;;;23.60;99.90;;;;;;5087534;28;20056;-76
2022/07/23 09:09:20;;;;;;;6.53;4.85;;;23.50;99.90;;;;;;5090396;28;20376;-75
2022/07/23 09:11:47;;;;;;;10.90;4.63;;;23.70;99.90;;;;;;5087238;28;20419;-75
2022/07/23 09:14:12;;;;;;;5.45;4.25;;;23.90;99.90;;;;;;5085542;28;20073;-76
2022/07/23 09:16:38;;;;;;;4.72;4.28;;;24.00;99.90;;;;;;5092944;28;20032;-75
2022/07/23 09:19:07;;;;;;;6.90;4.63;;;24.20;99.90;;;;;;5080726;28;20016;-75
2022/07/23 09:21:35;;;;;;;6.70;3.25;;;24.30;99.90;;;;;;5085685;28;20379;-75
2022/07/23 09:24:04;;;;;;;4.82;4.32;;;24.20;99.90;;;;;;5082415;28;20112;-75
2022/07/23 09:26:37;;;;;;;4.97;4.47;;;24.30;99.90;;;;;;5092223;28;20043;-75
2022/07/23 09:29:24;;;;;;;6.35;4.85;;;24.50;99.90;;;;;;5089669;28;20485;-74
2022/07/23 09:32:07;;;;;;;5.72;4.13;;;24.40;99.90;;;;;;5112140;27;20043;-74
2022/07/23 09:34:39;;;;;;;5.22;4.03;;;24.50;99.90;;;;;;5083326;28;20055;-75
2022/07/23 09:37:18;;;;;;;5.95;4.10;;;24.80;99.90;;;;;;5083937;28;20530;-74
2022/07/23 09:39:46;;;;;;;7.25;4.63;;;24.80;99.90;;;;;;5086975;28;20026;-73
2022/07/23 09:42:17;;;;;;;5.05;4.47;;;24.60;99.90;;;;;;5084177;28;20069;-74
2022/07/23 09:44:46;;;;;;;6.60;3.92;;;24.60;99.90;;;;;;5086908;28;20024;-75
2022/07/23 09:47:11;;;;;;;5.47;4.07;;;24.80;99.90;;;;;;5084845;28;20032;-75
2022/07/23 09:49:37;;;;;;;5.22;3.70;;;24.80;99.90;;;;;;5085282;28;20030;-74
2022/07/23 09:52:03;;;;;;;5.20;3.80;;;25.00;99.90;;;;;;5083972;28;20037;-74
2022/07/23 09:54:35;;;;;;;5.38;3.58;;;25.00;99.90;;;;;;5085472;28;20025;-73
2022/07/23 09:57:08;;;;;;;4.22;3.20;;;25.30;99.90;;;;;;5090396;28;20043;-73
2022/07/23 09:59:36;;;;;;;4.05;3.03;;;25.50;99.90;;;;;;5093715;28;20023;-72
2022/07/23 10:02:05;;;;;;;5.85;3.08;;;25.80;99.90;;;;;;5084730;28;20024;-74
2022/07/23 10:04:31;;;;;;;5.68;2.70;;;26.00;99.90;;;;;;5086389;28;20013;-75
2022/07/23 10:07:00;;;;;;;4.80;3.15;;;26.00;99.90;;;;;;5085211;28;20029;-74
2022/07/23 10:09:29;;;;;;;4.45;3.50;;;26.10;99.90;;;;;;5090295;28;20123;-74
2022/07/23 10:14:44;;;;;;;5.95;3.05;;;26.20;99.20;;;;;;5070836;28;20481;-74
2022/07/23 10:17:11;;;;;;;3.95;2.85;;;26.10;99.10;;;;;;5088613;28;20023;-74
2022/07/23 10:19:37;;;;;;;3.40;2.70;;;26.10;99.10;;;;;;5083880;28;20369;-75
2022/07/23 10:22:09;;;;;;;2.45;2.15;;;26.10;97.80;;;;;;5085000;28;20023;-74
2022/07/23 10:24:44;;;;;;;2.88;2.53;;;26.30;99.60;;;;;;5082859;28;20498;-74
2022/07/23 10:27:32;;;;;;;3.38;1.80;;;26.50;98.20;;;;;;5088862;28;20097;-74
2022/07/23 10:30:11;;;;;;;1.85;1.70;;;26.60;97.10;;;;;;5087340;28;20024;-74
2022/07/23 10:33:14;;;;;;;3.33;1.83;;;26.70;96.90;;;;;;5083589;28;20023;-75
2022/07/23 10:35:49;;;;;;;;;;;26.70;95.60;;;;;;5079487;28;20070;-74
2022/07/23 10:38:29;;;;;;;3.28;1.88;;;26.90;96.60;;;;;;5089360;28;19939;-75
2022/07/23 10:41:02;;;;;;;3.15;1.90;;;27.00;96.30;;;;;;5082351;28;20100;-75
2022/07/23 10:43:29;;;;;;;2.63;1.95;;;27.00;96.10;;;;;;5091826;28;20020;-74
2022/07/23 10:46:15;;;;;;;5.53;2.38;;;26.90;96.40;;;;;;5083456;28;20481;-74
2022/07/23 10:48:41;;;;;;;4.50;2.13;;;26.90;97.20;;;;;;5084481;28;20036;-74
2022/07/23 10:51:15;;;;;;;2.85;2.05;;;27.30;98.70;;;;;;5084851;28;20099;-74
2022/07/23 10:53:59;;;;;;;2.28;2.08;;;27.20;96.10;;;;;;5081636;28;20088;-74
2022/07/23 10:56:56;;;;;;;2.70;2.17;;;27.30;96.90;;;;;;5082301;28;20104;-75
2022/07/23 10:59:22;;;;;;;4.50;2.40;;;27.40;97.40;;;;;;5084653;28;20041;-75
2022/07/23 11:01:48;;;;;;;3.08;1.98;;;27.60;96.40;;;;;;5088875;28;20392;-75
2022/07/23 11:04:14;;;;;;;2.33;1.80;;;27.80;96.20;;;;;;5082161;28;20362;-75
2022/07/23 11:06:49;;;;;;;4.03;2.03;;;27.80;95.40;;;;;;5084080;28;20032;-75
2022/07/23 11:09:25;;;;;;;3.53;2.72;;;27.80;95.60;;;;;;5083816;28;20028;-74
2022/07/23 11:12:20;;;;;;;3.42;2.50;;;27.90;95.20;;;;;;5083252;28;20103;-75
2022/07/23 11:15:09;;;;;;;3.20;2.67;;;28.00;94.80;;;;;;5083635;28;20063;-74
2022/07/23 11:17:38;;;;;;;3.55;2.67;;;27.90;95.60;;;;;;5084818;28;20032;-75
2022/07/23 11:20:11;;;;;;;2.92;1.75;;;28.10;93.50;;;;;;5090050;28;20121;-73
2022/07/23 11:22:38;;;;;;;5.38;2.20;;;28.10;94.60;;;;;;5082476;28;20032;-74
2022/07/23 11:25:04;;;;;;;4.13;3.00;;;28.10;94.70;;;;;;5085639;28;20017;-73
2022/07/23 11:27:39;;;;;;;3.63;2.40;;;28.10;94.90;;;;;;5086137;28;20046;-75
2022/07/23 11:30:07;;;;;;;3.20;2.20;;;28.00;96.00;;;;;;5087321;28;20046;-74
2022/07/23 11:32:38;;;;;;;2.78;2.30;;;28.20;95.00;;;;;;5086177;28;20411;-75
2022/07/23 11:35:22;;;;;;;2.17;1.98;;;28.10;95.00;;;;;;5081516;28;20044;-75
2022/07/23 11:37:49;;;;;;;3.00;1.95;;;28.10;93.10;;;;;;5080725;28;20036;-74
2022/07/23 11:40:16;;;;;;;5.60;2.28;;;28.30;93.70;;;;;;5084507;28;20061;-73
2022/07/23 11:43:02;;;;;;;2.40;2.20;;;28.30;93.50;;;;;;5085703;28;20035;-75
2022/07/23 11:45:39;;;;;;;2.28;2.08;;;28.30;92.60;;;;;;5084298;28;20394;-75
2022/07/23 11:48:08;;;;;;;3.35;1.98;;;28.30;92.20;;;;;;5085522;28;20028;-74
2022/07/23 11:50:34;;;;;;;3.08;1.95;;;28.30;93.10;;;;;;5085647;28;20052;-74
2022/07/23 11:53:00;;;;;;;3.25;2.10;;;28.10;93.40;;;;;;5081962;28;20020;-76
2022/07/23 11:55:28;;;;;;;3.45;1.95;;;28.20;93.00;;;;;;5084402;28;20077;-76
2022/07/23 11:57:54;;;;;;;3.28;2.13;;;28.40;93.60;;;;;;5086565;28;20036;-74
2022/07/23 12:00:25;;;;;;;2.30;2.10;;;28.60;93.00;;;;;;5080327;28;20106;-74
2022/07/23 12:02:55;;;;;;;3.15;2.20;;;28.50;92.50;;;;;;5083233;28;20032;-75
2022/07/23 12:05:23;;;;;;;2.75;1.77;;;28.20;91.80;;;;;;5085419;28;20017;-75
2022/07/23 12:07:51;;;;;;;5.43;1.80;;;27.90;92.20;;;;;;5083299;28;20044;-75
2022/07/23 12:10:23;;;;;;;5.75;1.90;;;27.80;92.60;;;;;;5086629;28;20078;-74
2022/07/23 12:12:50;;;;;;;2.45;2.25;;;28.20;93.50;;;;;;5076584;28;20035;-74
2022/07/23 12:15:19;;;;;;;2.30;2.10;;;28.40;92.70;;;;;;5081231;28;20082;-74
2022/07/23 12:17:47;;;;;;;3.33;2.03;;;28.50;92.10;;;;;;5082898;28;20017;-75
2022/07/23 12:20:15;;;;;;;2.83;1.88;;;28.60;92.50;;;;;;5082891;28;20052;-74
2022/07/23 12:22:47;;;;;;;7.53;1.90;;;28.60;90.70;;;;;;5087708;28;20027;-74
2022/07/23 12:25:19;;;;;;;3.47;1.95;;;28.80;91.20;;;;;;5079817;28;20036;-74
2022/07/23 12:27:45;;;;;;;2.42;2.22;;;29.00;90.30;;;;;;5086585;28;20040;-74
2022/07/23 12:30:28;;;;;;;3.35;1.80;;;28.90;89.70;;;;;;5087781;28;20028;-74
2022/07/23 12:32:54;;;;;;;;;;;29.00;89.20;;;;;;5079974;28;20028;-75
2022/07/23 12:35:21;;;;;;;3.15;2.10;;;29.10;90.50;;;;;;5084482;28;20389;-76
2022/07/23 12:37:55;;;;;;;2.35;1.92;;;29.30;90.20;;;;;;5080587;28;20036;-75
2022/07/23 12:40:41;;;;;;;4.03;2.72;;;29.30;90.90;;;;;;5090629;28;20103;-74
2022/07/23 12:43:10;;;;;;;2.35;2.15;;;29.00;89.30;;;;;;5083159;28;20020;-74
2022/07/23 12:45:43;;;;;;;3.20;2.20;;;28.90;91.30;;;;;;5087113;28;20020;-74
2022/07/23 12:48:17;;;;;;;2.38;2.00;;;29.00;91.30;;;;;;5084957;28;20041;-73